createdAt,value
2019-04-24T00:02:32.324Z,10.30
2019-04-24T00:04:21.721Z,10.33
2019-04-24T00:08:35.766Z,13.33
2019-04-24T00:13:13.711Z,11.97
2019-04-24T00:15:31.950Z,11.23
2019-04-24T00:17:16.999Z,16.43
2019-04-24T00:21:29.649Z,13.63
2019-04-24T00:23:50.714Z,15.23
2019-04-24T00:25:45.949Z,11.93
2019-04-24T00:27:52.310Z,13.37
2019-04-24T00:29:56.107Z,15.88
2019-04-24T00:32:02.763Z,9.37
2019-04-24T00:36:32.442Z,14.60
2019-04-24T00:38:13.058Z,14.27
2019-04-24T00:40:22.929Z,11.80
2019-04-24T00:42:21.237Z,13.97
2019-04-24T00:44:29.552Z,11.47
2019-04-24T00:49:00.860Z,17.83
2019-04-24T00:51:13.843Z,10.67
2019-04-24T00:55:09.255Z,13.90
2019-04-24T00:57:28.362Z,10.93
2019-04-24T00:59:24.898Z,13.15
2019-04-24T01:01:42.590Z,16.03
2019-04-24T01:03:54.753Z,10.58
2019-04-24T01:05:56.927Z,10.40
2019-04-24T01:10:24.980Z,13.25
2019-04-24T01:12:36.928Z,13.43
2019-04-24T01:14:23.151Z,11.90
2019-04-24T01:25:21.822Z,11.07
2019-04-24T01:27:16.241Z,13.90
2019-04-24T01:31:22.981Z,12.03
2019-04-24T01:36:17.971Z,11.45
2019-04-24T01:38:36.027Z,9.57
2019-04-24T01:40:23.352Z,12.03
2019-04-24T01:46:46.593Z,10.80
2019-04-24T01:48:51.897Z,13.20
2019-04-24T01:50:46.553Z,9.37
2019-04-24T01:53:01.738Z,11.97
2019-04-24T01:55:07.067Z,9.60
2019-04-24T01:57:24.616Z,10.67
2019-04-24T01:59:28.851Z,11.40
2019-04-24T02:01:35.551Z,13.53
2019-04-24T02:03:30.368Z,12.70
2019-04-24T02:05:35.562Z,10.72
2019-04-24T02:10:26.756Z,10.00
2019-04-24T02:12:26.930Z,9.50
2019-04-24T02:14:24.293Z,11.00
2019-04-24T02:16:24.239Z,11.93
2019-04-24T02:18:34.242Z,11.12
2019-04-24T02:20:36.689Z,12.03
2019-04-24T02:22:49.487Z,13.20
2019-04-24T02:26:46.897Z,9.85
2019-04-24T02:29:07.212Z,11.13
2019-04-24T02:31:30.333Z,10.08
2019-04-24T02:44:45.432Z,11.65
2019-04-24T02:46:25.153Z,12.53
2019-04-24T02:48:37.662Z,13.38
2019-04-24T02:50:36.192Z,12.10
2019-04-24T02:52:48.127Z,17.20
2019-04-24T03:03:17.409Z,14.17
2019-04-24T03:05:15.127Z,10.40
2019-04-24T03:07:47.718Z,10.08
2019-04-24T03:09:31.203Z,10.15
2019-04-24T03:11:45.307Z,10.15
2019-04-24T03:13:59.856Z,9.00
2019-04-24T03:16:15.977Z,12.70
2019-04-24T03:18:17.971Z,10.82
2019-04-24T03:20:37.208Z,13.45
2019-04-24T03:29:04.978Z,11.12
2019-04-24T03:31:18.741Z,9.65
2019-04-24T03:33:46.643Z,12.75
2019-04-24T03:36:01.213Z,14.58
2019-04-24T03:40:19.095Z,12.70
2019-04-24T03:42:18.130Z,16.87
2019-04-24T03:44:13.646Z,10.82
2019-04-24T03:51:00.248Z,10.30
2019-04-24T03:52:27.586Z,12.77
2019-04-24T03:54:50.812Z,14.20
2019-04-24T03:59:03.621Z,12.73
2019-04-24T04:03:28.223Z,13.72
2019-04-24T04:16:08.515Z,12.93
2019-04-24T04:20:41.714Z,10.82
2019-04-24T04:24:44.234Z,12.97
2019-04-24T04:26:57.934Z,11.87
2019-04-24T04:29:14.305Z,11.77
2019-04-24T04:31:24.066Z,12.70
2019-04-24T04:35:18.961Z,12.33
2019-04-24T04:37:28.253Z,12.53
2019-04-24T04:39:48.917Z,12.00
2019-04-24T04:48:55.540Z,11.63
2019-04-24T04:56:51.854Z,15.33
2019-04-24T05:01:33.115Z,11.97
2019-04-24T05:07:48.426Z,13.67
2019-04-24T05:16:16.616Z,9.40
2019-04-24T05:18:19.580Z,9.70
2019-04-24T05:20:18.209Z,16.10
2019-04-24T05:24:28.887Z,12.93
2019-04-24T05:29:06.018Z,14.90
2019-04-24T05:30:50.920Z,14.30
2019-04-24T05:33:18.875Z,13.03
2019-04-24T05:42:12.404Z,8.93
2019-04-24T05:44:06.804Z,10.83
2019-04-24T05:46:17.088Z,15.17
2019-04-24T05:50:41.598Z,11.33
2019-04-24T05:55:04.311Z,12.10
2019-04-24T05:59:34.916Z,11.77
2019-04-24T06:01:35.819Z,13.00
2019-04-24T06:04:07.288Z,14.23
2019-04-24T06:09:59.577Z,13.60
2019-04-24T06:12:07.985Z,9.60
2019-04-24T06:14:11.872Z,11.60
2019-04-24T06:16:34.943Z,15.67
2019-04-24T06:18:45.646Z,14.07
2019-04-24T06:22:56.890Z,12.07
2019-04-24T06:25:28.480Z,12.60
2019-04-24T06:26:58.369Z,12.13
2019-04-24T06:29:37.627Z,8.17
2019-04-24T06:32:02.564Z,12.83
2019-04-24T06:33:50.026Z,9.90
2019-04-24T06:35:57.996Z,9.70
2019-04-24T06:37:52.653Z,13.07
2019-04-24T06:40:08.193Z,11.37
2019-04-24T06:42:11.848Z,10.23
2019-04-24T06:44:57.818Z,11.53
2019-04-24T06:46:58.943Z,10.73
2019-04-24T06:54:53.899Z,13.10
2019-04-24T06:57:21.130Z,12.40
2019-04-24T06:59:19.621Z,15.73
2019-04-24T07:01:24.170Z,12.80
2019-04-24T07:03:59.421Z,11.57
2019-04-24T07:05:47.449Z,12.00
2019-04-24T07:10:40.936Z,15.60
2019-04-24T07:12:31.753Z,15.50
2019-04-24T07:14:44.929Z,17.03
2019-04-24T07:17:15.517Z,10.60
2019-04-24T07:18:53.187Z,12.90
2019-04-24T07:21:32.373Z,16.53
2019-04-24T07:23:36.379Z,14.77
2019-04-24T07:25:55.987Z,12.27
2019-04-24T07:27:52.119Z,12.60
2019-04-24T07:30:25.536Z,13.77
2019-04-24T07:32:05.738Z,17.73
2019-04-24T07:34:30.047Z,11.77
2019-04-24T07:36:36.283Z,12.37
2019-04-24T07:38:28.637Z,14.53
2019-04-24T07:42:54.254Z,15.50
2019-04-24T07:44:56.788Z,12.83
2019-04-24T07:51:30.828Z,14.57
2019-04-24T07:53:51.759Z,12.33
2019-04-24T07:55:55.285Z,15.50
2019-04-24T07:57:46.030Z,12.50
2019-04-24T08:06:23.746Z,13.43
2019-04-24T08:08:27.218Z,10.70
2019-04-24T08:10:44.036Z,11.47
2019-04-24T08:12:37.470Z,10.17
2019-04-24T08:15:02.850Z,13.93
2019-04-24T08:16:41.252Z,11.40
2019-04-24T08:18:38.223Z,12.93
2019-04-24T08:20:58.689Z,13.73
2019-04-24T08:22:49.786Z,13.97
2019-04-24T08:27:17.789Z,12.70
2019-04-24T08:29:09.192Z,10.77
2019-04-24T08:38:02.784Z,13.87
2019-04-24T08:42:34.192Z,16.30
2019-04-24T08:44:29.926Z,15.03
2019-04-24T08:46:43.112Z,9.43
2019-04-24T08:51:21.371Z,15.30
2019-04-24T08:53:09.946Z,12.83
2019-04-24T08:57:27.433Z,10.33
2019-04-24T08:59:48.681Z,10.90
2019-04-24T09:03:58.561Z,10.10
2019-04-24T09:06:05.610Z,9.57
2019-04-24T09:08:19.913Z,9.20
2019-04-24T09:10:48.521Z,10.83
2019-04-24T09:13:00.653Z,11.03
2019-04-24T09:14:45.645Z,13.30
2019-04-24T09:19:06.812Z,14.00
2019-04-24T09:26:00.696Z,10.30
2019-04-24T09:32:08.849Z,9.83
2019-04-24T09:33:56.479Z,11.33
2019-04-24T09:36:20.838Z,12.50
2019-04-24T09:38:10.251Z,12.13
2019-04-24T09:40:54.997Z,12.17
2019-04-24T09:43:02.072Z,15.90
2019-04-24T09:44:43.012Z,11.90
2019-04-24T09:46:48.093Z,11.27
2019-04-24T09:51:12.356Z,10.20
2019-04-24T09:53:30.164Z,12.20
2019-04-24T09:57:31.167Z,12.97
2019-04-24T10:03:47.522Z,18.23
2019-04-24T10:08:02.576Z,11.50
2019-04-24T10:14:35.866Z,11.67
2019-04-24T10:16:55.507Z,11.30
2019-04-24T10:21:12.676Z,13.00
2019-04-24T10:23:44.172Z,10.30
2019-04-24T10:25:42.076Z,11.57
2019-04-24T10:28:02.679Z,9.13
2019-04-24T10:30:26.153Z,12.93
2019-04-24T10:32:23.929Z,9.73
2019-04-24T10:34:30.553Z,9.50
2019-04-24T10:38:53.457Z,8.53
2019-04-24T10:41:09.253Z,10.00
2019-04-24T10:43:10.243Z,11.50
2019-04-24T10:53:56.216Z,11.53
2019-04-24T10:58:07.253Z,9.43
2019-04-24T11:00:17.012Z,11.63
2019-04-24T11:04:44.946Z,8.77
2019-04-24T11:07:09.083Z,10.77
2019-04-24T11:09:40.630Z,10.43
2019-04-24T11:13:53.246Z,9.17
2019-04-24T11:16:19.161Z,6.23
2019-04-24T11:19:04.671Z,12.10
2019-04-24T11:21:14.205Z,10.07
2019-04-24T11:23:03.547Z,13.27
2019-04-24T11:25:28.288Z,11.93
2019-04-24T11:27:28.015Z,11.00
2019-04-24T11:34:09.631Z,9.53
2019-04-24T11:36:23.605Z,9.40
2019-04-24T11:38:31.809Z,10.37
2019-04-24T11:40:55.335Z,10.27
2019-04-24T11:42:43.653Z,10.30
2019-04-24T11:44:52.229Z,8.60
2019-04-24T11:49:30.253Z,7.70
2019-04-24T11:51:34.136Z,9.50
2019-04-24T11:53:33.477Z,9.97
2019-04-24T11:55:49.659Z,10.57
2019-04-24T11:58:14.592Z,10.47
2019-04-24T11:59:50.847Z,7.67
2019-04-24T12:04:49.853Z,11.37
2019-04-24T12:06:48.669Z,11.23
2019-04-24T12:11:03.038Z,14.77
2019-04-24T12:15:39.384Z,8.47
2019-04-24T12:17:42.054Z,16.97
2019-04-24T12:24:23.194Z,13.43
2019-04-24T12:28:14.014Z,14.40
2019-04-24T12:30:20.193Z,17.07
2019-04-24T12:32:47.313Z,15.87
2019-04-24T12:37:03.453Z,12.00
2019-04-24T12:39:06.704Z,10.43
2019-04-24T12:41:18.564Z,11.00
2019-04-24T12:45:40.304Z,12.23
2019-04-24T12:47:40.294Z,8.93
2019-04-24T12:51:47.798Z,13.17
2019-04-24T12:54:05.844Z,9.50
2019-04-24T12:56:16.873Z,14.00
2019-04-24T12:58:28.726Z,10.53
2019-04-24T13:00:55.087Z,12.43
2019-04-24T13:02:53.393Z,12.47
2019-04-24T13:05:00.578Z,8.33
2019-04-24T13:07:06.823Z,15.53
2019-04-24T13:09:19.406Z,12.20
2019-04-24T13:11:22.945Z,10.70
2019-04-24T13:18:11.743Z,12.43
2019-04-24T13:19:45.162Z,11.93
2019-04-24T13:21:56.314Z,15.80
2019-04-24T13:24:09.119Z,11.83
2019-04-24T13:26:31.491Z,14.53
2019-04-24T13:31:12.139Z,16.17
2019-04-24T13:37:26.366Z,11.37
2019-04-24T13:39:43.489Z,16.67
2019-04-24T13:41:52.776Z,15.47
2019-04-24T13:43:59.799Z,12.97
2019-04-24T13:45:53.249Z,15.87
2019-04-24T13:48:09.132Z,16.17
2019-04-24T13:50:04.258Z,13.03
2019-04-24T13:52:38.393Z,14.47
2019-04-24T13:54:14.777Z,20.80
2019-04-24T13:56:12.101Z,12.77
2019-04-24T14:00:52.840Z,13.43
2019-04-24T14:03:01.484Z,16.40
2019-04-24T14:04:37.248Z,18.13
2019-04-24T14:06:56.200Z,11.83
2019-04-24T14:13:00.342Z,11.07
2019-04-24T14:15:08.910Z,15.03
2019-04-24T14:17:09.756Z,12.40
2019-04-24T14:21:38.484Z,14.47
2019-04-24T14:23:41.008Z,13.53
2019-04-24T14:25:51.917Z,19.17
2019-04-24T14:27:59.687Z,14.17
2019-04-24T14:32:11.447Z,14.43
2019-04-24T14:34:15.106Z,13.90
2019-04-24T14:38:25.570Z,16.73
2019-04-24T14:42:25.046Z,10.90
2019-04-24T14:45:00.682Z,13.97
2019-04-24T14:47:05.921Z,17.23
2019-04-24T14:49:13.283Z,12.40
2019-04-24T14:51:13.132Z,13.63
2019-04-24T14:53:09.464Z,12.40
2019-04-24T14:57:37.474Z,12.97
2019-04-24T14:59:36.228Z,9.87
2019-04-24T15:01:48.037Z,11.70
2019-04-24T15:03:50.924Z,11.00
2019-04-24T15:06:01.124Z,13.50
2019-04-24T15:08:03.076Z,11.50
2019-04-24T15:10:02.865Z,13.10
2019-04-24T15:14:34.160Z,11.07
2019-04-24T15:16:36.864Z,14.37
2019-04-24T15:18:55.669Z,11.37
2019-04-24T15:20:35.863Z,11.33
2019-04-24T15:22:51.821Z,9.33
2019-04-24T15:24:56.383Z,12.57
2019-04-24T15:26:49.445Z,10.03
2019-04-24T15:29:03.581Z,12.93
2019-04-24T15:33:11.639Z,14.07
2019-04-24T15:35:18.305Z,8.33
2019-04-24T15:39:27.046Z,5.07
2019-04-24T15:41:42.239Z,7.37
2019-04-24T15:43:47.686Z,4.57
2019-04-24T15:45:47.437Z,4.17
2019-04-24T15:50:00.227Z,4.80
2019-04-24T15:51:34.134Z,1.97
2019-04-24T15:53:35.764Z,3.17
2019-04-24T15:55:40.418Z,1.03
2019-04-24T15:57:45.864Z,2.33
2019-04-24T16:00:14.956Z,4.10
2019-04-24T16:04:37.712Z,2.57
2019-04-24T16:06:09.846Z,2.90
2019-04-24T16:08:16.194Z,1.30
2019-04-24T16:10:21.352Z,4.67
2019-04-24T16:12:25.272Z,1.77
2019-04-24T16:14:53.044Z,23.07
2019-04-24T16:17:02.117Z,3.27
2019-04-24T16:23:26.668Z,2.80
2019-04-24T16:25:25.706Z,2.30
2019-04-24T16:27:44.577Z,2.80
2019-04-24T16:29:53.981Z,2.60
2019-04-24T16:32:17.522Z,2.30
2019-04-24T16:33:56.759Z,3.03
2019-04-24T16:36:15.678Z,2.80
2019-04-24T16:38:08.920Z,2.10
2019-04-24T16:40:34.012Z,2.70
2019-04-24T16:42:30.339Z,3.57
2019-04-24T16:44:45.976Z,3.83
2019-04-24T16:46:49.890Z,4.97
2019-04-24T16:48:37.475Z,3.73
2019-04-24T16:55:12.083Z,2.47
2019-04-24T16:57:11.958Z,16.87
2019-04-24T16:59:15.019Z,5.07
2019-04-24T17:01:36.417Z,1.87
2019-04-24T17:03:42.685Z,5.23
2019-04-24T17:07:53.795Z,5.43
2019-04-24T17:10:01.249Z,6.50
2019-04-24T17:18:42.725Z,3.00
2019-04-24T17:20:36.978Z,3.27
2019-04-24T17:22:53.239Z,3.27
2019-04-24T17:24:57.710Z,5.00
2019-04-24T17:29:20.129Z,3.17
2019-04-24T17:31:14.556Z,3.60
2019-04-24T17:33:15.233Z,6.40
2019-04-24T17:36:55.444Z,3.60
2019-04-24T17:39:09.464Z,3.47
2019-04-24T17:41:20.014Z,2.80
2019-04-24T17:43:57.202Z,5.80
2019-04-24T17:45:57.633Z,3.30
2019-04-24T17:48:05.082Z,1.25
2019-04-24T17:52:34.195Z,2.72
2019-04-24T17:56:33.709Z,3.33
2019-04-24T17:58:04.555Z,1.95
2019-04-24T18:00:09.111Z,2.40
2019-04-24T18:02:14.860Z,5.08
2019-04-24T18:04:19.079Z,1.82
2019-04-24T18:06:22.882Z,2.35
2019-04-24T18:08:26.986Z,2.75
2019-04-24T18:10:33.094Z,2.02
2019-04-24T18:12:37.274Z,1.25
2019-04-24T18:14:41.467Z,2.08
2019-04-24T18:16:46.029Z,1.07
2019-04-24T18:18:50.191Z,2.20
2019-04-24T18:20:54.405Z,0.85
2019-04-24T18:22:58.225Z,3.12
2019-04-24T18:25:04.255Z,2.40
2019-04-24T18:27:12.625Z,2.45
2019-04-24T18:29:16.712Z,1.80
2019-04-24T18:31:21.267Z,3.58
2019-04-24T18:33:25.073Z,2.87
2019-04-24T18:35:30.218Z,1.77
2019-04-24T18:37:34.358Z,10.00
2019-04-24T18:39:38.469Z,1.65
2019-04-24T18:41:42.317Z,3.08
2019-04-24T18:43:46.482Z,4.47
2019-04-24T18:45:51.559Z,3.50
2019-04-24T18:47:55.951Z,3.95
2019-04-24T18:50:02.448Z,4.70
2019-04-24T18:52:06.806Z,10.03
2019-04-24T18:54:12.765Z,8.18
2019-04-24T18:56:16.894Z,28.30
2019-04-24T18:58:22.073Z,3.50
2019-04-24T19:00:26.640Z,2.60
2019-04-24T19:02:32.274Z,6.17
2019-04-24T19:04:36.609Z,3.30
2019-04-24T19:06:41.535Z,5.12
2019-04-24T19:08:45.741Z,6.50
2019-04-24T19:10:51.517Z,11.97
2019-04-24T19:12:55.370Z,3.83
2019-04-24T19:14:59.201Z,5.70
2019-04-24T19:17:03.407Z,5.87
2019-04-24T19:19:07.820Z,7.45
2019-04-24T19:21:12.729Z,6.42
2019-04-24T19:23:16.873Z,5.62
2019-04-24T19:25:22.039Z,4.50
2019-04-24T19:27:26.523Z,3.55
2019-04-24T19:29:30.641Z,5.03
2019-04-24T19:31:34.753Z,4.20
2019-04-24T19:33:38.643Z,3.65
2019-04-24T19:35:42.778Z,4.50
2019-04-24T19:37:46.982Z,6.40
2019-04-24T19:39:51.083Z,4.33
2019-04-24T19:41:55.203Z,1.87
2019-04-24T19:43:59.307Z,8.28
2019-04-24T19:46:03.139Z,2.00
2019-04-24T19:48:07.321Z,2.80
2019-04-24T19:50:12.606Z,2.12
2019-04-24T19:52:17.351Z,2.00
2019-04-24T19:54:22.007Z,2.42
2019-04-24T19:56:26.939Z,3.95
2019-04-24T19:58:31.436Z,7.05
2019-04-24T20:00:35.665Z,2.30
2019-04-24T20:02:39.785Z,2.65
2019-04-24T20:04:43.802Z,2.23
2019-04-24T20:06:47.995Z,10.32
2019-04-24T20:08:52.113Z,3.12
2019-04-24T20:11:01.335Z,3.25
2019-04-24T20:13:05.463Z,2.95
2019-04-24T20:15:09.655Z,2.58
2019-04-24T20:17:14.489Z,3.75
2019-04-24T20:19:19.869Z,4.90
2019-04-24T20:21:24.970Z,2.22
2019-04-24T20:23:34.503Z,3.58
2019-04-24T20:25:35.125Z,2.40
2019-04-24T20:27:39.239Z,2.27
2019-04-24T20:29:43.347Z,2.15
2019-04-24T20:31:47.191Z,4.42
2019-04-24T20:33:51.476Z,3.55
2019-04-24T20:35:55.581Z,2.72
2019-04-24T20:38:02.250Z,3.72
2019-04-24T20:40:08.815Z,2.62
2019-04-24T20:42:13.027Z,1.60
2019-04-24T20:44:17.579Z,4.28
2019-04-24T20:46:21.901Z,2.95
2019-04-24T20:48:26.352Z,3.05
2019-04-24T20:50:31.823Z,3.75
2019-04-24T20:52:36.041Z,3.00
2019-04-24T20:54:40.135Z,3.37
2019-04-24T20:56:44.023Z,4.17
2019-04-24T20:58:48.149Z,2.37
2019-04-24T21:00:51.975Z,2.25
2019-04-24T21:02:56.281Z,3.72
2019-04-24T21:05:01.189Z,2.47
2019-04-24T21:07:19.793Z,2.47
2019-04-24T21:09:28.505Z,1.62
2019-04-24T21:11:32.676Z,1.72
2019-04-24T21:13:36.856Z,1.80
2019-04-24T21:15:41.263Z,2.45
2019-04-24T21:17:45.421Z,2.00
2019-04-24T21:19:49.632Z,3.47
2019-04-24T21:21:53.737Z,5.30
2019-04-24T21:23:57.857Z,2.22
2019-04-24T21:26:01.691Z,3.20
2019-04-24T21:28:05.504Z,3.17
2019-04-24T21:30:10.421Z,3.52
2019-04-24T21:32:14.598Z,2.55
2019-04-24T21:34:18.717Z,2.45
2019-04-24T21:36:24.356Z,2.75
2019-04-24T21:38:29.268Z,3.00
2019-04-24T21:40:33.301Z,2.08
2019-04-24T21:42:37.513Z,4.47
2019-04-24T21:44:41.932Z,2.58
2019-04-24T21:46:46.141Z,4.25
2019-04-24T21:48:51.721Z,3.95
2019-04-24T21:50:56.108Z,2.92
2019-04-24T21:52:59.943Z,2.33
2019-04-24T21:55:05.347Z,2.55
2019-04-24T21:57:09.557Z,2.62
2019-04-24T21:59:13.773Z,3.08
2019-04-24T22:01:19.227Z,3.30
2019-04-24T22:03:43.191Z,4.25
2019-04-24T22:05:56.820Z,1.62
2019-04-24T22:08:01.235Z,5.35
2019-04-24T22:10:06.831Z,2.55
2019-04-24T22:12:11.223Z,3.87
2019-04-24T22:14:16.277Z,11.25
2019-04-24T22:16:21.784Z,5.85
2019-04-24T22:18:26.829Z,6.45
2019-04-24T22:20:35.622Z,2.58
2019-04-24T22:22:55.682Z,4.97
2019-04-24T22:24:53.973Z,3.72
2019-04-24T22:26:58.097Z,1.47
2019-04-24T22:29:02.015Z,5.80
2019-04-24T22:31:10.616Z,3.98
2019-04-24T22:33:15.818Z,1.98
2019-04-24T22:35:24.365Z,2.33
2019-04-24T22:37:29.044Z,3.30
2019-04-24T22:39:37.841Z,2.37
2019-04-24T22:41:41.681Z,3.27
2019-04-24T22:43:45.925Z,2.00
2019-04-24T22:45:51.687Z,4.20
2019-04-24T22:47:55.692Z,5.33
2019-04-24T22:49:59.791Z,2.70
2019-04-24T22:52:04.568Z,3.67
2019-04-24T22:54:08.360Z,3.65
2019-04-24T22:56:12.178Z,2.92
2019-04-24T22:58:16.031Z,2.33
2019-04-24T23:00:25.274Z,1.25
2019-04-24T23:02:31.548Z,4.28
2019-04-24T23:04:35.955Z,3.10
2019-04-24T23:06:41.500Z,5.72
2019-04-24T23:08:45.357Z,5.08
2019-04-24T23:10:49.235Z,2.33
2019-04-24T23:12:53.505Z,4.17
2019-04-24T23:14:57.621Z,3.33
2019-04-24T23:17:01.983Z,2.20
2019-04-24T23:19:06.143Z,3.37
2019-04-24T23:21:29.873Z,3.75
2019-04-24T23:23:44.680Z,4.17
2019-04-24T23:26:02.188Z,2.22
2019-04-24T23:28:16.537Z,3.33
2019-04-24T23:30:25.366Z,2.47
2019-04-24T23:32:33.513Z,2.47
2019-04-24T23:34:39.341Z,2.30
2019-04-24T23:36:44.504Z,3.22
2019-04-24T23:38:48.668Z,1.75
2019-04-24T23:40:52.883Z,1.40
2019-04-24T23:42:56.984Z,2.37
2019-04-24T23:45:02.429Z,3.83
2019-04-24T23:47:06.887Z,2.25
2019-04-24T23:49:11.056Z,2.15
2019-04-24T23:51:15.176Z,1.90
2019-04-24T23:53:22.468Z,2.33
2019-04-24T23:55:26.577Z,3.70
2019-04-24T23:57:30.783Z,3.75
2019-04-24T23:59:35.852Z,4.22
